Terminal Aerodrome Forecast
Issued by NWS

Home | Current Version | Previous Version | Text Only | Print | Product List | Glossary On
Versions: 1 2 3 4 5 6 7 8 9 10 11 12 13 14
648
FTUS45 KABQ 162329
TAFTCC
TAF
KTCC 162329Z 1700/1724 10007KT P6SM SKC
     FM171600 17008KT P6SM SKC
     FM172000 21010G17KT P6SM SCT110=

USA.gov is the U.S. government's official web portal to all federal, state and local government web resources and services.